KABR/ABR METAR and TAF weather

Enter ICAO airport designator
Station Type Date Time Source
KABR METAR 2019/12/13 14:22 UTC NOAA

KABR 131422Z AUTO 21010KT 3/4SM BR OVC002 M06/M07 A2980 RMK AO2 I1002 T10561067


Station Type Date Time Source
KABR Decoded METAR 2019/12/13 14:22 UTC NOAA

ABERDEEN REGIONAL AIRPORT, SD, United States (KABR) 45-27N 098-25W 400M
Dec 13, 2019 - 09:22 AM EST / 2019.12.13 1422 UTC
Wind: from the SSW (210 degrees) at 12 MPH (10 KT):0
Visibility: 3/4 mile(s):0
Sky conditions: overcast
Weather: mist
Temperature: 21.9 F (-5.6 C)
Windchill: 10 F (-12 C):1
Dew Point: 19.9 F (-6.7 C)
Relative Humidity: 91%
Pressure (altimeter): 29.8 in. Hg (1009 hPa)
ob: KABR 131422Z AUTO 21010KT 3/4SM BR OVC002 M06/M07 A2980 RMK AO2 I1002 T10561067
cycle: 14

Station Type Date Time Source
KABR TAF 2019/12/13 12:22 UTC NOAA

TAF KABR 131120Z 1312/1412 14005KT P6SM OVC007
TEMPO 1312/1315 3SM BR OVC004
FM132000 31011KT P6SM BKN012
FM132300 34016G24KT P6SM BKN019
FM140500 34011G18KT P6SM SCT040

Example: see airport list